Time;durP1;ratioP1;P1;durP2;ratioP2;P2;SDS_P1;SDS_P2;PMS_P1;PMS_P2;Temp;Humidity;BMP_temperature;BMP_pressure;BME280_temperature;BME280_humidity;BME280_pressure;Samples;Min_cycle;Max_cycle;Signal;HPM_P1;HPM_P2
2019/09/21 00:00:42;;;;;;;8.800001;6.199999;;;;;;;5.85;82.06738;95837.7;;;;
2019/09/21 00:01:51;;;;;;;8.500001;6.349999;;;;;;;5.86;82.27051;95834.94;;;;
2019/09/21 00:02:55;;;;;;;8.500001;6.349999;;;;;;;5.86;82.27051;95834.94;;;;
2019/09/21 00:03:56;;;;;;;8.500001;6.349999;;;;;;;5.86;82.27051;95834.94;;;;
2019/09/21 00:04:57;;;;;;;8.500001;6.349999;;;;;;;5.86;82.27051;95834.94;;;;
2019/09/21 00:05:58;;;;;;;8.500001;6.349999;;;;;;;5.86;82.27051;95834.94;;;;
2019/09/21 00:06:59;;;;;;;8.500001;6.349999;;;;;;;5.86;82.27051;95834.94;;;;
2019/09/21 00:08:05;;;;;;;8.500001;6.349999;;;;;;;5.86;82.27051;95834.94;;;;
2019/09/21 00:09:09;;;;;;;8.500001;6.349999;;;;;;;5.86;82.27051;95834.94;;;;
2019/09/21 00:10:13;;;;;;;8.500001;6.349999;;;;;;;5.86;82.27051;95834.94;;;;
2019/09/21 00:11:17;;;;;;;8.500001;6.349999;;;;;;;5.86;82.27051;95834.94;;;;
2019/09/21 00:12:39;;;;;;;8.799999;6.249999;;;;;;;5.54;80.66016;95827.72;;;;
2019/09/21 00:13:43;;;;;;;8.799999;6.249999;;;;;;;5.54;80.66016;95827.72;;;;
2019/09/21 00:14:55;;;;;;;8.799999;6.249999;;;;;;;5.54;80.66016;95827.72;;;;
2019/09/21 00:16:05;;;;;;;8.849999;6.55;;;;;;;5.53;81.40527;95824.31;;;;
2019/09/21 00:18:16;;;;;;;8.849999;6.55;;;;;;;5.53;81.40527;95824.31;;;;
2019/09/21 00:24:30;;;;;;;7.799999;6.05;;;;;;;5.62;82.26758;95811.53;;;;
2019/09/21 00:25:31;;;;;;;7.799999;6.05;;;;;;;5.62;82.26758;95811.53;;;;
2019/09/21 00:26:33;;;;;;;7.799999;6.05;;;;;;;5.62;82.26758;95811.53;;;;
2019/09/21 00:27:35;;;;;;;7.799999;6.05;;;;;;;5.62;82.26758;95811.53;;;;
2019/09/21 00:28:36;;;;;;;7.799999;6.05;;;;;;;5.62;82.26758;95811.53;;;;
2019/09/21 00:29:37;;;;;;;7.799999;6.05;;;;;;;5.62;82.26758;95811.53;;;;
2019/09/21 00:30:38;;;;;;;7.799999;6.05;;;;;;;5.62;82.26758;95811.53;;;;
2019/09/21 00:33:13;;;;;;;8.800001;6.05;;;;;;;5.42;80.59277;95802.56;;;;
2019/09/21 00:34:14;;;;;;;8.250001;6.149999;;;;;;;5.44;81.48242;95797.85;;;;
2019/09/21 00:35:15;;;;;;;8.250001;6.149999;;;;;;;5.44;81.48242;95797.85;;;;
2019/09/21 00:36:17;;;;;;;8.250001;6.149999;;;;;;;5.44;81.48242;95797.85;;;;
2019/09/21 00:37:18;;;;;;;8.250001;6.149999;;;;;;;5.44;81.48242;95797.85;;;;
2019/09/21 00:38:19;;;;;;;8.250001;6.149999;;;;;;;5.44;81.48242;95797.85;;;;
2019/09/21 00:39:21;;;;;;;8.250001;6.149999;;;;;;;5.44;81.48242;95797.85;;;;
2019/09/21 00:40:22;;;;;;;8.250001;6.149999;;;;;;;5.44;81.48242;95797.85;;;;
2019/09/21 00:41:24;;;;;;;8.250001;6.149999;;;;;;;5.44;81.48242;95797.85;;;;
2019/09/21 00:42:25;;;;;;;8.250001;6.149999;;;;;;;5.44;81.48242;95797.85;;;;
2019/09/21 00:43:27;;;;;;;8.250001;6.149999;;;;;;;5.44;81.48242;95797.85;;;;
2019/09/21 00:44:28;;;;;;;8.95;5.65;;;;;;;5.33;80.25;95793.84;;;;
2019/09/21 00:45:29;;;;;;;8.95;5.65;;;;;;;5.33;80.25;95793.84;;;;
2019/09/21 00:46:31;;;;;;;8.95;5.65;;;;;;;5.33;80.25;95793.84;;;;
2019/09/21 00:47:33;;;;;;;7.6;5.5;;;;;;;5.38;81.15723;95791.83;;;;
2019/09/21 00:48:34;;;;;;;7.6;5.5;;;;;;;5.38;81.15723;95791.83;;;;
2019/09/21 00:49:35;;;;;;;7.6;5.5;;;;;;;5.38;81.15723;95791.83;;;;
2019/09/21 00:50:37;;;;;;;7.6;5.5;;;;;;;5.38;81.15723;95791.83;;;;
2019/09/21 00:51:41;;;;;;;7.6;5.5;;;;;;;5.38;81.15723;95791.83;;;;
2019/09/21 00:53:57;;;;;;;7.6;5.5;;;;;;;5.38;81.15723;95791.83;;;;
2019/09/21 00:54:58;;;;;;;7.6;5.5;;;;;;;5.38;81.15723;95791.83;;;;
2019/09/21 00:55:59;;;;;;;7.6;5.5;;;;;;;5.38;81.15723;95791.83;;;;
2019/09/21 00:57:00;;;;;;;7.6;5.5;;;;;;;5.38;81.15723;95791.83;;;;
2019/09/21 00:58:02;;;;;;;7.999999;5.599999;;;;;;;5.4;79.92578;95795.14;;;;
2019/09/21 00:59:03;;;;;;;7.999999;5.599999;;;;;;;5.4;79.92578;95795.14;;;;
2019/09/21 01:00:04;;;;;;;7.3;5.45;;;;;;;5.48;80.55273;95793.77;;;;
2019/09/21 01:01:08;;;;;;;7.3;5.45;;;;;;;5.48;80.55273;95793.77;;;;
2019/09/21 01:02:23;;;;;;;7.3;5.45;;;;;;;5.48;80.55273;95793.77;;;;
2019/09/21 01:03:24;;;;;;;7.3;5.45;;;;;;;5.48;80.55273;95793.77;;;;
2019/09/21 01:04:26;;;;;;;7.3;5.45;;;;;;;5.48;80.55273;95793.77;;;;
2019/09/21 01:05:27;;;;;;;7.3;5.45;;;;;;;5.48;80.55273;95793.77;;;;
2019/09/21 01:06:29;;;;;;;7.3;5.45;;;;;;;5.48;80.55273;95793.77;;;;
2019/09/21 01:07:30;;;;;;;7.3;5.45;;;;;;;5.48;80.55273;95793.77;;;;
2019/09/21 01:08:31;;;;;;;7.3;5.45;;;;;;;5.48;80.55273;95793.77;;;;
2019/09/21 01:09:32;;;;;;;7.3;5.45;;;;;;;5.48;80.55273;95793.77;;;;
2019/09/21 01:10:34;;;;;;;6.95;5.55;;;;;;;5.56;79.16406;95773.03;;;;
2019/09/21 01:11:35;;;;;;;6.95;5.55;;;;;;;5.56;79.16406;95773.03;;;;
2019/09/21 01:12:36;;;;;;;6.95;5.55;;;;;;;5.56;79.16406;95773.03;;;;
2019/09/21 01:13:38;;;;;;;7;5.55;;;;;;;5.63;79.88379;95768.17;;;;
2019/09/21 01:14:39;;;;;;;7;5.55;;;;;;;5.63;79.88379;95768.17;;;;
2019/09/21 01:15:40;;;;;;;7;5.55;;;;;;;5.63;79.88379;95768.17;;;;
2019/09/21 01:16:41;;;;;;;7;5.55;;;;;;;5.63;79.88379;95768.17;;;;
2019/09/21 01:17:43;;;;;;;7;5.55;;;;;;;5.63;79.88379;95768.17;;;;
2019/09/21 01:18:44;;;;;;;7;5.55;;;;;;;5.63;79.88379;95768.17;;;;
2019/09/21 01:19:45;;;;;;;7;5.55;;;;;;;5.63;79.88379;95768.17;;;;
2019/09/21 01:20:47;;;;;;;7;5.55;;;;;;;5.63;79.88379;95768.17;;;;
2019/09/21 01:22:03;;;;;;;7;5.55;;;;;;;5.63;79.88379;95768.17;;;;
2019/09/21 01:23:04;;;;;;;7;5.55;;;;;;;5.63;79.88379;95768.17;;;;
2019/09/21 01:24:06;;;;;;;7.400001;5.65;;;;;;;5.59;78.57715;95763.72;;;;
2019/09/21 01:25:08;;;;;;;7.400001;5.65;;;;;;;5.59;78.57715;95763.72;;;;
2019/09/21 01:26:11;;;;;;;7.400001;5.65;;;;;;;5.59;78.57715;95763.72;;;;
2019/09/21 01:27:12;;;;;;;7.05;5.5;;;;;;;5.61;79.3418;95755.49;;;;
2019/09/21 01:28:13;;;;;;;7.05;5.5;;;;;;;5.61;79.3418;95755.49;;;;
2019/09/21 01:29:14;;;;;;;7.05;5.5;;;;;;;5.61;79.3418;95755.49;;;;
2019/09/21 01:30:16;;;;;;;7.05;5.5;;;;;;;5.61;79.3418;95755.49;;;;
2019/09/21 01:31:18;;;;;;;7.05;5.5;;;;;;;5.61;79.3418;95755.49;;;;
2019/09/21 01:32:28;;;;;;;7.05;5.5;;;;;;;5.61;79.3418;95755.49;;;;
2019/09/21 01:33:29;;;;;;;7.05;5.5;;;;;;;5.61;79.3418;95755.49;;;;
2019/09/21 01:34:30;;;;;;;7.05;5.5;;;;;;;5.61;79.3418;95755.49;;;;
2019/09/21 01:35:32;;;;;;;7.05;5.5;;;;;;;5.61;79.3418;95755.49;;;;
2019/09/21 01:36:34;;;;;;;7.05;5.5;;;;;;;5.61;79.3418;95755.49;;;;
2019/09/21 01:37:35;;;;;;;8.300001;6.199999;;;;;;;5.46;78.41602;95744.02;;;;
2019/09/21 01:38:36;;;;;;;8.300001;6.199999;;;;;;;5.46;78.41602;95744.02;;;;
2019/09/21 01:39:38;;;;;;;8.1;6.2;;;;;;;5.47;79.37891;95743.81;;;;
2019/09/21 01:40:40;;;;;;;8.1;6.2;;;;;;;5.47;79.37891;95743.81;;;;
2019/09/21 01:41:41;;;;;;;8.1;6.2;;;;;;;5.47;79.37891;95743.81;;;;
2019/09/21 01:42:43;;;;;;;8.1;6.2;;;;;;;5.47;79.37891;95743.81;;;;
2019/09/21 01:43:44;;;;;;;8.1;6.2;;;;;;;5.47;79.37891;95743.81;;;;
2019/09/21 01:44:45;;;;;;;8.1;6.2;;;;;;;5.47;79.37891;95743.81;;;;
2019/09/21 01:45:47;;;;;;;8.1;6.2;;;;;;;5.47;79.37891;95743.81;;;;
2019/09/21 01:47:03;;;;;;;8.1;6.2;;;;;;;5.47;79.37891;95743.81;;;;
2019/09/21 01:48:05;;;;;;;8.1;6.2;;;;;;;5.47;79.37891;95743.81;;;;
2019/09/21 01:49:08;;;;;;;8.1;6.2;;;;;;;5.47;79.37891;95743.81;;;;
2019/09/21 01:50:10;;;;;;;8.1;6.2;;;;;;;5.47;79.37891;95743.81;;;;
2019/09/21 01:51:12;;;;;;;9.4;5.799999;;;;;;;5.29;78.45898;95737.67;;;;
2019/09/21 01:52:13;;;;;;;9.4;5.799999;;;;;;;5.29;78.45898;95737.67;;;;
2019/09/21 01:53:14;;;;;;;8.6;6.2;;;;;;;5.29;79.38965;95731.82;;;;
2019/09/21 01:54:15;;;;;;;8.6;6.2;;;;;;;5.29;79.38965;95731.82;;;;
2019/09/21 01:55:17;;;;;;;8.6;6.2;;;;;;;5.29;79.38965;95731.82;;;;
2019/09/21 01:56:19;;;;;;;8.6;6.2;;;;;;;5.29;79.38965;95731.82;;;;
2019/09/21 01:57:20;;;;;;;8.6;6.2;;;;;;;5.29;79.38965;95731.82;;;;
2019/09/21 01:58:21;;;;;;;8.6;6.2;;;;;;;5.29;79.38965;95731.82;;;;
2019/09/21 01:59:22;;;;;;;8.6;6.2;;;;;;;5.29;79.38965;95731.82;;;;
2019/09/21 02:00:24;;;;;;;8.6;6.2;;;;;;;5.29;79.38965;95731.82;;;;
2019/09/21 02:01:26;;;;;;;8.6;6.2;;;;;;;5.29;79.38965;95731.82;;;;
2019/09/21 02:02:27;;;;;;;8.6;6.2;;;;;;;5.29;79.38965;95731.82;;;;
2019/09/21 02:03:28;;;;;;;8.65;6.299999;;;;;;;5.1;78.59375;95726.7;;;;
2019/09/21 02:04:30;;;;;;;8.65;6.299999;;;;;;;5.1;78.59375;95726.7;;;;
2019/09/21 02:05:31;;;;;;;8.65;6.299999;;;;;;;5.1;78.59375;95726.7;;;;
2019/09/21 02:06:32;;;;;;;8.95;6.099999;;;;;;;5.11;79.61914;95731.95;;;;
2019/09/21 02:07:33;;;;;;;8.95;6.099999;;;;;;;5.11;79.61914;95731.95;;;;
2019/09/21 02:08:35;;;;;;;8.95;6.099999;;;;;;;5.11;79.61914;95731.95;;;;
2019/09/21 02:09:36;;;;;;;8.95;6.099999;;;;;;;5.11;79.61914;95731.95;;;;
2019/09/21 02:10:37;;;;;;;8.95;6.099999;;;;;;;5.11;79.61914;95731.95;;;;
2019/09/21 02:11:41;;;;;;;8.95;6.099999;;;;;;;5.11;79.61914;95731.95;;;;
2019/09/21 02:12:43;;;;;;;8.95;6.099999;;;;;;;5.11;79.61914;95731.95;;;;
2019/09/21 02:13:44;;;;;;;8.95;6.099999;;;;;;;5.11;79.61914;95731.95;;;;
2019/09/21 02:14:46;;;;;;;8.95;6.099999;;;;;;;5.11;79.61914;95731.95;;;;
2019/09/21 02:15:47;;;;;;;8.95;6.099999;;;;;;;5.11;79.61914;95731.95;;;;
2019/09/21 02:16:48;;;;;;;7.25;5.75;;;;;;;4.91;78.8125;95719.3;;;;
2019/09/21 02:17:49;;;;;;;7.25;5.75;;;;;;;4.91;78.8125;95719.3;;;;
2019/09/21 02:18:50;;;;;;;7.25;5.75;;;;;;;4.91;78.8125;95719.3;;;;
2019/09/21 02:19:51;;;;;;;9.4;6.299999;;;;;;;4.92;79.85645;95713.86;;;;
2019/09/21 02:20:53;;;;;;;9.4;6.299999;;;;;;;4.92;79.85645;95713.86;;;;
2019/09/21 02:21:54;;;;;;;9.4;6.299999;;;;;;;4.92;79.85645;95713.86;;;;
2019/09/21 02:22:55;;;;;;;9.4;6.299999;;;;;;;4.92;79.85645;95713.86;;;;
2019/09/21 02:23:56;;;;;;;9.4;6.299999;;;;;;;4.92;79.85645;95713.86;;;;
2019/09/21 02:24:57;;;;;;;9.4;6.299999;;;;;;;4.92;79.85645;95713.86;;;;
2019/09/21 02:25:59;;;;;;;9.4;6.299999;;;;;;;4.92;79.85645;95713.86;;;;
2019/09/21 02:27:00;;;;;;;9.4;6.299999;;;;;;;4.92;79.85645;95713.86;;;;
2019/09/21 02:28:01;;;;;;;9.4;6.299999;;;;;;;4.92;79.85645;95713.86;;;;
2019/09/21 02:29:03;;;;;;;9.4;6.299999;;;;;;;4.92;79.85645;95713.86;;;;
2019/09/21 02:30:05;;;;;;;7.9;5.799999;;;;;;;4.73;79.04199;95700.2;;;;
2019/09/21 02:31:07;;;;;;;7.9;5.799999;;;;;;;4.73;79.04199;95700.2;;;;
2019/09/21 02:32:14;;;;;;;7.9;5.799999;;;;;;;4.73;79.04199;95700.2;;;;
2019/09/21 02:33:15;;;;;;;8.150002;6.750001;;;;;;;4.73;80.11719;95697.91;;;;
2019/09/21 02:34:16;;;;;;;8.150002;6.750001;;;;;;;4.73;80.11719;95697.91;;;;
2019/09/21 02:35:17;;;;;;;8.150002;6.750001;;;;;;;4.73;80.11719;95697.91;;;;
2019/09/21 02:36:19;;;;;;;8.150002;6.750001;;;;;;;4.73;80.11719;95697.91;;;;
2019/09/21 02:37:20;;;;;;;8.150002;6.750001;;;;;;;4.73;80.11719;95697.91;;;;
2019/09/21 02:38:21;;;;;;;8.150002;6.750001;;;;;;;4.73;80.11719;95697.91;;;;
2019/09/21 02:39:22;;;;;;;8.150002;6.750001;;;;;;;4.73;80.11719;95697.91;;;;
2019/09/21 02:40:23;;;;;;;8.150002;6.750001;;;;;;;4.73;80.11719;95697.91;;;;
2019/09/21 02:41:48;;;;;;;8.150002;6.750001;;;;;;;4.73;80.11719;95697.91;;;;
2019/09/21 02:42:50;;;;;;;8.150002;6.750001;;;;;;;4.73;80.11719;95697.91;;;;
2019/09/21 02:43:51;;;;;;;7.55;6.35;;;;;;;4.53;79.30273;95682.58;;;;
2019/09/21 02:44:52;;;;;;;7.55;6.35;;;;;;;4.53;79.30273;95682.58;;;;
2019/09/21 02:45:53;;;;;;;10.45;6.85;;;;;;;4.55;80.44141;95691.78;;;;
2019/09/21 02:46:54;;;;;;;10.45;6.85;;;;;;;4.55;80.44141;95691.78;;;;
2019/09/21 02:47:56;;;;;;;10.45;6.85;;;;;;;4.55;80.44141;95691.78;;;;
2019/09/21 02:48:57;;;;;;;10.45;6.85;;;;;;;4.55;80.44141;95691.78;;;;
2019/09/21 02:49:58;;;;;;;10.45;6.85;;;;;;;4.55;80.44141;95691.78;;;;
2019/09/21 02:50:59;;;;;;;10.45;6.85;;;;;;;4.55;80.44141;95691.78;;;;
2019/09/21 02:52:01;;;;;;;10.45;6.85;;;;;;;4.55;80.44141;95691.78;;;;
2019/09/21 02:53:02;;;;;;;10.45;6.85;;;;;;;4.55;80.44141;95691.78;;;;
2019/09/21 02:54:03;;;;;;;10.45;6.85;;;;;;;4.55;80.44141;95691.78;;;;
2019/09/21 02:55:06;;;;;;;10.45;6.85;;;;;;;4.55;80.44141;95691.78;;;;
2019/09/21 02:56:07;;;;;;;10.45;6.85;;;;;;;4.55;80.44141;95691.78;;;;
2019/09/21 02:57:09;;;;;;;8.049998;6.25;;;;;;;4.4;79.65723;95675.78;;;;
2019/09/21 02:58:10;;;;;;;8.049998;6.25;;;;;;;4.4;79.65723;95675.78;;;;
2019/09/21 02:59:11;;;;;;;9.349999;7.149999;;;;;;;4.41;80.78613;95672.07;;;;
2019/09/21 03:00:12;;;;;;;9.349999;7.149999;;;;;;;4.41;80.78613;95672.07;;;;
2019/09/21 03:01:20;;;;;;;9.349999;7.149999;;;;;;;4.41;80.78613;95672.07;;;;
2019/09/21 03:02:55;;;;;;;9.349999;7.149999;;;;;;;4.41;80.78613;95672.07;;;;
2019/09/21 03:03:56;;;;;;;9.349999;7.149999;;;;;;;4.41;80.78613;95672.07;;;;
2019/09/21 03:04:58;;;;;;;9.349999;7.149999;;;;;;;4.41;80.78613;95672.07;;;;
2019/09/21 03:05:59;;;;;;;9.349999;7.149999;;;;;;;4.41;80.78613;95672.07;;;;
2019/09/21 03:07:00;;;;;;;9.349999;7.149999;;;;;;;4.41;80.78613;95672.07;;;;
2019/09/21 03:08:03;;;;;;;9.349999;7.149999;;;;;;;4.41;80.78613;95672.07;;;;
2019/09/21 03:09:04;;;;;;;9.349999;7.149999;;;;;;;4.41;80.78613;95672.07;;;;
2019/09/21 03:10:08;;;;;;;9.399999;6.849999;;;;;;;4.27;79.98047;95668.94;;;;
2019/09/21 03:11:11;;;;;;;9.399999;6.849999;;;;;;;4.27;79.98047;95668.94;;;;
2019/09/21 03:12:12;;;;;;;9.399999;6.849999;;;;;;;4.27;79.98047;95668.94;;;;
2019/09/21 03:13:14;;;;;;;10.6;6.7;;;;;;;4.28;81.12891;95661.64;;;;
2019/09/21 03:14:15;;;;;;;10.6;6.7;;;;;;;4.28;81.12891;95661.64;;;;
2019/09/21 03:15:16;;;;;;;10.6;6.7;;;;;;;4.28;81.12891;95661.64;;;;
2019/09/21 03:16:18;;;;;;;10.6;6.7;;;;;;;4.28;81.12891;95661.64;;;;
2019/09/21 03:17:19;;;;;;;10.6;6.7;;;;;;;4.28;81.12891;95661.64;;;;
2019/09/21 03:18:20;;;;;;;10.6;6.7;;;;;;;4.28;81.12891;95661.64;;;;
2019/09/21 03:19:21;;;;;;;10.6;6.7;;;;;;;4.28;81.12891;95661.64;;;;
2019/09/21 03:20:23;;;;;;;10.6;6.7;;;;;;;4.28;81.12891;95661.64;;;;
2019/09/21 03:21:25;;;;;;;10.6;6.7;;;;;;;4.28;81.12891;95661.64;;;;
2019/09/21 03:22:27;;;;;;;10.6;6.7;;;;;;;4.28;81.12891;95661.64;;;;
2019/09/21 03:23:28;;;;;;;8.949999;6.4;;;;;;;4.14;80.32422;95667.01;;;;
2019/09/21 03:24:30;;;;;;;8.949999;6.4;;;;;;;4.14;80.32422;95667.01;;;;
2019/09/21 03:25:32;;;;;;;9.749998;7.249999;;;;;;;4.15;81.45117;95663.34;;;;
2019/09/21 03:26:33;;;;;;;9.749998;7.249999;;;;;;;4.15;81.45117;95663.34;;;;
2019/09/21 03:27:34;;;;;;;9.749998;7.249999;;;;;;;4.15;81.45117;95663.34;;;;
2019/09/21 03:28:35;;;;;;;9.749998;7.249999;;;;;;;4.15;81.45117;95663.34;;;;
2019/09/21 03:29:37;;;;;;;9.749998;7.249999;;;;;;;4.15;81.45117;95663.34;;;;
2019/09/21 03:30:38;;;;;;;9.749998;7.249999;;;;;;;4.15;81.45117;95663.34;;;;
2019/09/21 03:31:39;;;;;;;9.749998;7.249999;;;;;;;4.15;81.45117;95663.34;;;;
2019/09/21 03:32:41;;;;;;;9.749998;7.249999;;;;;;;4.15;81.45117;95663.34;;;;
2019/09/21 03:33:42;;;;;;;9.749998;7.249999;;;;;;;4.15;81.45117;95663.34;;;;
2019/09/21 03:34:43;;;;;;;9.749998;7.249999;;;;;;;4.15;81.45117;95663.34;;;;
2019/09/21 03:35:44;;;;;;;9.749998;7.249999;;;;;;;4.15;81.45117;95663.34;;;;
2019/09/21 03:36:45;;;;;;;9.749998;7.249999;;;;;;;4.15;81.45117;95663.34;;;;
2019/09/21 03:37:49;;;;;;;9.749998;7.249999;;;;;;;4.15;81.45117;95663.34;;;;
2019/09/21 03:38:50;;;;;;;9.749998;7.249999;;;;;;;4.15;81.45117;95663.34;;;;
2019/09/21 03:39:51;;;;;;;9.749998;7.249999;;;;;;;4.15;81.45117;95663.34;;;;
2019/09/21 03:40:53;;;;;;;9.749998;7.249999;;;;;;;4.15;81.45117;95663.34;;;;
2019/09/21 03:42:18;;;;;;;9.749998;7.249999;;;;;;;4.15;81.45117;95663.34;;;;
2019/09/21 03:43:19;;;;;;;9.749998;7.249999;;;;;;;4.15;81.45117;95663.34;;;;
2019/09/21 03:44:20;;;;;;;9.749998;7.249999;;;;;;;4.15;81.45117;95663.34;;;;
2019/09/21 03:45:21;;;;;;;9.749998;7.249999;;;;;;;4.15;81.45117;95663.34;;;;
2019/09/21 03:46:23;;;;;;;9.749998;7.249999;;;;;;;4.15;81.45117;95663.34;;;;
2019/09/21 03:47:24;;;;;;;11.15;7.7;;;;;;;3.98;80.02051;95662.3;;;;
2019/09/21 03:48:25;;;;;;;11.15;7.7;;;;;;;3.98;80.02051;95662.3;;;;
2019/09/21 03:49:26;;;;;;;11.15;7.7;;;;;;;3.98;80.02051;95662.3;;;;
2019/09/21 03:50:27;;;;;;;11.15;7.7;;;;;;;3.98;80.02051;95662.3;;;;
2019/09/21 03:51:29;;;;;;;11.15;7.7;;;;;;;3.98;80.02051;95662.3;;;;
2019/09/21 03:52:30;;;;;;;11.15;7.7;;;;;;;3.98;80.02051;95662.3;;;;
2019/09/21 03:53:31;;;;;;;11.15;7.7;;;;;;;3.98;80.02051;95662.3;;;;
2019/09/21 03:54:32;;;;;;;11.15;7.7;;;;;;;3.98;80.02051;95662.3;;;;
2019/09/21 03:55:33;;;;;;;11.15;7.7;;;;;;;3.98;80.02051;95662.3;;;;
2019/09/21 03:56:35;;;;;;;11.15;7.7;;;;;;;3.98;80.02051;95662.3;;;;
2019/09/21 03:57:37;;;;;;;10.55;7.599999;;;;;;;3.8;80.05957;95669.02;;;;
2019/09/21 03:58:38;;;;;;;10.55;7.599999;;;;;;;3.8;80.05957;95669.02;;;;
2019/09/21 03:59:41;;;;;;;10.55;7.599999;;;;;;;3.8;80.05957;95669.02;;;;
2019/09/21 04:00:42;;;;;;;10.55;7.599999;;;;;;;3.8;80.05957;95669.02;;;;
2019/09/21 04:01:46;;;;;;;10.55;7.599999;;;;;;;3.8;80.05957;95669.02;;;;
2019/09/21 04:02:47;;;;;;;10.55;7.599999;;;;;;;3.8;80.05957;95669.02;;;;
2019/09/21 04:03:48;;;;;;;10.55;7.599999;;;;;;;3.8;80.05957;95669.02;;;;
2019/09/21 04:04:49;;;;;;;10.55;7.599999;;;;;;;3.8;80.05957;95669.02;;;;
2019/09/21 04:05:50;;;;;;;10.55;7.599999;;;;;;;3.8;80.05957;95669.02;;;;
2019/09/21 04:06:52;;;;;;;10.55;7.599999;;;;;;;3.8;80.05957;95669.02;;;;
2019/09/21 04:07:53;;;;;;;10.55;7.599999;;;;;;;3.8;80.05957;95669.02;;;;
2019/09/21 04:08:54;;;;;;;10.15;7.4;;;;;;;3.74;80.0293;95659.94;;;;
2019/09/21 04:09:55;;;;;;;10.15;7.4;;;;;;;3.74;80.0293;95659.94;;;;
2019/09/21 04:10:56;;;;;;;10.15;7.4;;;;;;;3.74;80.0293;95659.94;;;;
2019/09/21 04:11:59;;;;;;;10.15;7.4;;;;;;;3.74;80.0293;95659.94;;;;
2019/09/21 04:13:00;;;;;;;10.15;7.4;;;;;;;3.74;80.0293;95659.94;;;;
2019/09/21 04:14:01;;;;;;;10.15;7.4;;;;;;;3.74;80.0293;95659.94;;;;
2019/09/21 04:15:03;;;;;;;10.15;7.4;;;;;;;3.74;80.0293;95659.94;;;;
2019/09/21 04:16:04;;;;;;;10.15;7.4;;;;;;;3.74;80.0293;95659.94;;;;
2019/09/21 04:17:06;;;;;;;10.15;7.4;;;;;;;3.74;80.0293;95659.94;;;;
2019/09/21 04:18:07;;;;;;;10.15;7.4;;;;;;;3.74;80.0293;95659.94;;;;
2019/09/21 04:19:08;;;;;;;9.250001;7.15;;;;;;;3.61;79.97363;95672.6;;;;
2019/09/21 04:20:09;;;;;;;9.250001;7.15;;;;;;;3.61;79.97363;95672.6;;;;
2019/09/21 04:21:11;;;;;;;9.250001;7.15;;;;;;;3.61;79.97363;95672.6;;;;
2019/09/21 04:22:12;;;;;;;9.250001;7.15;;;;;;;3.61;79.97363;95672.6;;;;
2019/09/21 04:23:14;;;;;;;9.250001;7.15;;;;;;;3.61;79.97363;95672.6;;;;
2019/09/21 04:24:15;;;;;;;9.250001;7.15;;;;;;;3.61;79.97363;95672.6;;;;
2019/09/21 04:25:16;;;;;;;9.250001;7.15;;;;;;;3.61;79.97363;95672.6;;;;
2019/09/21 04:26:18;;;;;;;9.250001;7.15;;;;;;;3.61;79.97363;95672.6;;;;
2019/09/21 04:27:19;;;;;;;9.250001;7.15;;;;;;;3.61;79.97363;95672.6;;;;
2019/09/21 04:28:20;;;;;;;9.250001;7.15;;;;;;;3.61;79.97363;95672.6;;;;
2019/09/21 04:29:21;;;;;;;9.250001;7.15;;;;;;;3.61;79.97363;95672.6;;;;
2019/09/21 04:30:22;;;;;;;9.1;7.050001;;;;;;;3.59;79.93848;95670.62;;;;
2019/09/21 04:31:24;;;;;;;9.1;7.050001;;;;;;;3.59;79.93848;95670.62;;;;
2019/09/21 04:32:25;;;;;;;9.1;7.050001;;;;;;;3.59;79.93848;95670.62;;;;
2019/09/21 04:33:27;;;;;;;9.1;7.050001;;;;;;;3.59;79.93848;95670.62;;;;
2019/09/21 04:34:28;;;;;;;9.1;7.050001;;;;;;;3.59;79.93848;95670.62;;;;
2019/09/21 04:35:29;;;;;;;9.1;7.050001;;;;;;;3.59;79.93848;95670.62;;;;
2019/09/21 04:36:30;;;;;;;9.1;7.050001;;;;;;;3.59;79.93848;95670.62;;;;
2019/09/21 04:37:31;;;;;;;9.1;7.050001;;;;;;;3.59;79.93848;95670.62;;;;
2019/09/21 04:38:32;;;;;;;9.1;7.050001;;;;;;;3.59;79.93848;95670.62;;;;
2019/09/21 04:39:34;;;;;;;9.1;7.050001;;;;;;;3.59;79.93848;95670.62;;;;
2019/09/21 04:40:35;;;;;;;9.050001;7.15;;;;;;;3.49;79.88965;95680.72;;;;
2019/09/21 04:41:37;;;;;;;9.050001;7.15;;;;;;;3.49;79.88965;95680.72;;;;
2019/09/21 04:42:38;;;;;;;9.050001;7.15;;;;;;;3.49;79.88965;95680.72;;;;
2019/09/21 04:43:39;;;;;;;9.050001;7.15;;;;;;;3.49;79.88965;95680.72;;;;
2019/09/21 04:44:40;;;;;;;9.050001;7.15;;;;;;;3.49;79.88965;95680.72;;;;
2019/09/21 04:45:41;;;;;;;9.050001;7.15;;;;;;;3.49;79.88965;95680.72;;;;
2019/09/21 04:46:48;;;;;;;9.050001;7.15;;;;;;;3.49;79.88965;95680.72;;;;
2019/09/21 04:47:49;;;;;;;9.050001;7.15;;;;;;;3.49;79.88965;95680.72;;;;
2019/09/21 04:48:51;;;;;;;9.050001;7.15;;;;;;;3.49;79.88965;95680.72;;;;
2019/09/21 04:49:52;;;;;;;9.050001;7.15;;;;;;;3.49;79.88965;95680.72;;;;
2019/09/21 04:50:53;;;;;;;9.349999;7.050001;;;;;;;3.47;79.81055;95673.01;;;;
2019/09/21 04:51:54;;;;;;;9.349999;7.050001;;;;;;;3.47;79.81055;95673.01;;;;
2019/09/21 04:52:55;;;;;;;9.349999;7.050001;;;;;;;3.47;79.81055;95673.01;;;;
2019/09/21 04:53:56;;;;;;;9.349999;7.050001;;;;;;;3.47;79.81055;95673.01;;;;
2019/09/21 04:54:58;;;;;;;9.349999;7.050001;;;;;;;3.47;79.81055;95673.01;;;;
2019/09/21 04:55:59;;;;;;;9.349999;7.050001;;;;;;;3.47;79.81055;95673.01;;;;
2019/09/21 04:57:00;;;;;;;9.349999;7.050001;;;;;;;3.47;79.81055;95673.01;;;;
2019/09/21 04:58:02;;;;;;;9.349999;7.050001;;;;;;;3.47;79.81055;95673.01;;;;
2019/09/21 04:59:03;;;;;;;9.349999;7.050001;;;;;;;3.47;79.81055;95673.01;;;;
2019/09/21 05:00:04;;;;;;;9.349999;7.050001;;;;;;;3.47;79.81055;95673.01;;;;
2019/09/21 05:01:06;;;;;;;9.349999;7.050001;;;;;;;3.47;79.81055;95673.01;;;;
2019/09/21 05:02:10;;;;;;;10.4;7.3;;;;;;;3.39;79.78418;95668.24;;;;
2019/09/21 05:03:12;;;;;;;10.4;7.3;;;;;;;3.39;79.78418;95668.24;;;;
2019/09/21 05:04:13;;;;;;;10.4;7.3;;;;;;;3.39;79.78418;95668.24;;;;
2019/09/21 05:05:14;;;;;;;10.4;7.3;;;;;;;3.39;79.78418;95668.24;;;;
2019/09/21 05:06:16;;;;;;;10.4;7.3;;;;;;;3.39;79.78418;95668.24;;;;
2019/09/21 05:07:17;;;;;;;10.4;7.3;;;;;;;3.39;79.78418;95668.24;;;;
2019/09/21 05:08:18;;;;;;;10.4;7.3;;;;;;;3.39;79.78418;95668.24;;;;
2019/09/21 05:09:19;;;;;;;10.4;7.3;;;;;;;3.39;79.78418;95668.24;;;;
2019/09/21 05:10:20;;;;;;;10.4;7.3;;;;;;;3.39;79.78418;95668.24;;;;
2019/09/21 05:11:22;;;;;;;10.4;7.3;;;;;;;3.39;79.78418;95668.24;;;;
2019/09/21 05:12:23;;;;;;;9.949999;7.400001;;;;;;;3.43;79.76172;95657.95;;;;
2019/09/21 05:13:24;;;;;;;9.949999;7.400001;;;;;;;3.43;79.76172;95657.95;;;;
2019/09/21 05:14:26;;;;;;;9.949999;7.400001;;;;;;;3.43;79.76172;95657.95;;;;
2019/09/21 05:15:27;;;;;;;9.949999;7.400001;;;;;;;3.43;79.76172;95657.95;;;;
2019/09/21 05:16:30;;;;;;;9.949999;7.400001;;;;;;;3.43;79.76172;95657.95;;;;
2019/09/21 05:17:31;;;;;;;9.949999;7.400001;;;;;;;3.43;79.76172;95657.95;;;;
2019/09/21 05:18:32;;;;;;;9.949999;7.400001;;;;;;;3.43;79.76172;95657.95;;;;
2019/09/21 05:19:33;;;;;;;9.949999;7.400001;;;;;;;3.43;79.76172;95657.95;;;;
2019/09/21 05:20:34;;;;;;;9.949999;7.400001;;;;;;;3.43;79.76172;95657.95;;;;
2019/09/21 05:21:36;;;;;;;9.949999;7.400001;;;;;;;3.43;79.76172;95657.95;;;;
2019/09/21 05:22:37;;;;;;;8.950002;7.85;;;;;;;3.43;79.65625;95664.12;;;;
2019/09/21 05:23:39;;;;;;;8.950002;7.85;;;;;;;3.43;79.65625;95664.12;;;;
2019/09/21 05:24:40;;;;;;;8.950002;7.85;;;;;;;3.43;79.65625;95664.12;;;;
2019/09/21 05:25:41;;;;;;;8.950002;7.85;;;;;;;3.43;79.65625;95664.12;;;;
2019/09/21 05:26:42;;;;;;;8.950002;7.85;;;;;;;3.43;79.65625;95664.12;;;;
2019/09/21 05:27:43;;;;;;;8.950002;7.85;;;;;;;3.43;79.65625;95664.12;;;;
2019/09/21 05:28:44;;;;;;;8.950002;7.85;;;;;;;3.43;79.65625;95664.12;;;;
2019/09/21 05:29:46;;;;;;;8.950002;7.85;;;;;;;3.43;79.65625;95664.12;;;;
2019/09/21 05:30:47;;;;;;;8.950002;7.85;;;;;;;3.43;79.65625;95664.12;;;;
2019/09/21 05:31:52;;;;;;;8.950002;7.85;;;;;;;3.43;79.65625;95664.12;;;;
2019/09/21 05:32:53;;;;;;;8.950002;7.85;;;;;;;3.43;79.65625;95664.12;;;;
2019/09/21 05:33:54;;;;;;;11.9;7.600001;;;;;;;3.56;79.62695;95671.08;;;;
2019/09/21 05:34:55;;;;;;;11.9;7.600001;;;;;;;3.56;79.62695;95671.08;;;;
2019/09/21 05:35:57;;;;;;;11.9;7.600001;;;;;;;3.56;79.62695;95671.08;;;;
2019/09/21 05:36:58;;;;;;;11.9;7.600001;;;;;;;3.56;79.62695;95671.08;;;;
2019/09/21 05:37:59;;;;;;;11.9;7.600001;;;;;;;3.56;79.62695;95671.08;;;;
2019/09/21 05:39:00;;;;;;;11.9;7.600001;;;;;;;3.56;79.62695;95671.08;;;;
2019/09/21 05:40:03;;;;;;;11.9;7.600001;;;;;;;3.56;79.62695;95671.08;;;;
2019/09/21 05:41:05;;;;;;;11.9;7.600001;;;;;;;3.56;79.62695;95671.08;;;;
2019/09/21 05:42:07;;;;;;;11.9;7.600001;;;;;;;3.56;79.62695;95671.08;;;;
2019/09/21 05:43:08;;;;;;;11.9;7.600001;;;;;;;3.56;79.62695;95671.08;;;;
2019/09/21 05:44:09;;;;;;;12.4;8;;;;;;;3.68;79.5127;95666.92;;;;
2019/09/21 05:45:11;;;;;;;12.4;8;;;;;;;3.68;79.5127;95666.92;;;;
2019/09/21 05:46:12;;;;;;;12.4;8;;;;;;;3.68;79.5127;95666.92;;;;
2019/09/21 05:47:14;;;;;;;12.4;8;;;;;;;3.68;79.5127;95666.92;;;;
2019/09/21 05:48:15;;;;;;;12.4;8;;;;;;;3.68;79.5127;95666.92;;;;
2019/09/21 05:49:16;;;;;;;12.4;8;;;;;;;3.68;79.5127;95666.92;;;;
2019/09/21 05:50:17;;;;;;;12.4;8;;;;;;;3.68;79.5127;95666.92;;;;
2019/09/21 05:51:20;;;;;;;12.4;8;;;;;;;3.68;79.5127;95666.92;;;;